Time;durP1;ratioP1;P1;durP2;ratioP2;P2;SDS_P1;SDS_P2;PMS_P1;PMS_P2;Temp;Humidity;BMP_temperature;BMP_pressure;BME280_temperature;BME280_humidity;BME280_pressure;Samples;Min_cycle;Max_cycle;Signal;HPM_P1;HPM_P2
2023/10/21 00:00:11;;;;;;;92.45;33.78;;;;;;;;;;5775589;28;20130;-72
2023/10/21 00:03:02;;;;;;;61.55;19.63;;;;;;;;;;5751292;28;20055;-72
2023/10/21 00:05:53;;;;;;;62.85;17.42;;;;;;;;;;5775879;28;20518;-71
2023/10/21 00:08:44;;;;;;;20.90;10.35;;;;;;;;;;5775212;28;20126;-71
2023/10/21 00:11:35;;;;;;;39.95;10.05;;;;;;;;;;5775394;28;20058;-71
2023/10/21 00:14:26;;;;;;;15.75;7.40;;;;;;;;;;5775126;28;20051;-71
2023/10/21 00:17:16;;;;;;;15.32;4.97;;;;;;;;;;5774781;28;20051;-71
2023/10/21 00:20:08;;;;;;;23.77;5.70;;;;;;;;;;5775051;28;20129;-71
2023/10/21 00:22:59;;;;;;;15.68;6.10;;;;;;;;;;5775514;28;20069;-71
2023/10/21 00:25:50;;;;;;;11.15;5.10;;;;;;;;;;5775088;28;20043;-71
2023/10/21 00:28:41;;;;;;;15.57;5.18;;;;;;;;;;5774879;28;20501;-71
2023/10/21 00:31:32;;;;;;;12.60;4.85;;;;;;;;;;5774854;28;20055;-71
2023/10/21 00:34:22;;;;;;;10.10;4.40;;;;;;;;;;5774755;28;20425;-71
2023/10/21 00:37:13;;;;;;;11.45;4.18;;;;;;;;;;5774622;28;20062;-71
2023/10/21 00:40:06;;;;;;;12.57;4.78;;;;;;;;;;5774739;28;20074;-71
2023/10/21 00:42:57;;;;;;;11.15;6.07;;;;;;;;;;5774920;28;20051;-71
2023/10/21 00:45:47;;;;;;;10.65;4.85;;;;;;;;;;5774637;28;20339;-71
2023/10/21 00:48:40;;;;;;;16.17;5.82;;;;;;;;;;5774365;28;20170;-71
2023/10/21 00:51:31;;;;;;;14.32;5.95;;;;;;;;;;5774520;28;20051;-71
2023/10/21 00:54:25;;;;;;;31.40;8.02;;;;;;;;;;5773155;28;20047;-71
2023/10/21 00:57:16;;;;;;;16.45;5.78;;;;;;;;;;5774185;28;20534;-71
2023/10/21 01:00:11;;;;;;;48.13;9.85;;;;;;;;;;5774263;28;20482;-71
2023/10/21 01:03:02;;;;;;;40.47;8.60;;;;;;;;;;5774096;28;20070;-71
2023/10/21 01:05:54;;;;;;;31.08;11.43;;;;;;;;;;5774774;28;20050;-71
2023/10/21 01:08:48;;;;;;;17.88;7.95;;;;;;;;;;5774075;28;20052;-71
2023/10/21 01:11:38;;;;;;;13.68;6.90;;;;;;;;;;5773990;28;20182;-71
2023/10/21 01:14:29;;;;;;;16.85;7.25;;;;;;;;;;5773909;28;20055;-71
2023/10/21 01:17:20;;;;;;;19.52;7.22;;;;;;;;;;5773746;28;20062;-71
2023/10/21 01:20:11;;;;;;;15.93;7.05;;;;;;;;;;5773838;28;20501;-71
2023/10/21 01:23:02;;;;;;;20.10;8.18;;;;;;;;;;5773658;28;20070;-72
2023/10/21 01:25:53;;;;;;;35.80;11.27;;;;;;;;;;5774026;28;20061;-71
2023/10/21 01:28:43;;;;;;;48.63;21.48;;;;;;;;;;5773014;28;20402;-71
2023/10/21 01:31:35;;;;;;;59.47;25.17;;;;;;;;;;5773538;28;20061;-71
2023/10/21 01:34:26;;;;;;;41.65;22.75;;;;;;;;;;5773395;28;20047;-71
2023/10/21 01:37:17;;;;;;;34.72;15.60;;;;;;;;;;5773357;28;20051;-71
2023/10/21 01:40:10;;;;;;;15.93;7.40;;;;;;;;;;5773345;28;20417;-71
2023/10/21 01:43:01;;;;;;;17.45;7.97;;;;;;;;;;5773758;28;20516;-72
2023/10/21 01:45:52;;;;;;;15.43;7.82;;;;;;;;;;5773834;28;20055;-71
2023/10/21 01:48:43;;;;;;;40.58;6.22;;;;;;;;;;5787912;28;20066;-71
2023/10/21 01:51:34;;;;;;;36.05;11.88;;;;;;;;;;5773106;28;20591;-71
2023/10/21 01:54:25;;;;;;;43.72;13.43;;;;;;;;;;5773200;28;20055;-71
2023/10/21 01:57:16;;;;;;;29.92;10.30;;;;;;;;;;5772902;28;20043;-71
2023/10/21 02:00:11;;;;;;;17.45;8.80;;;;;;;;;;5772905;28;20071;-71
2023/10/21 02:03:02;;;;;;;28.48;9.68;;;;;;;;;;5772890;28;20106;-71
2023/10/21 02:05:54;;;;;;;23.20;11.77;;;;;;;;;;5773369;28;20058;-71
2023/10/21 02:08:44;;;;;;;15.88;10.75;;;;;;;;;;5772886;28;20413;-71
2023/10/21 02:11:35;;;;;;;31.38;13.80;;;;;;;;;;5772660;28;20062;-71
2023/10/21 02:14:26;;;;;;;22.58;9.77;;;;;;;;;;5772798;28;20055;-71
2023/10/21 02:17:17;;;;;;;30.98;11.48;;;;;;;;;;5772706;28;20421;-71
2023/10/21 02:20:12;;;;;;;14.93;8.93;;;;;;;;;;5772636;28;20070;-71
2023/10/21 02:23:03;;;;;;;16.52;7.30;;;;;;;;;;5772712;28;20054;-72
2023/10/21 02:26:03;;;;;;;13.32;9.43;;;;;;;;;;5772882;28;20490;-71
2023/10/21 02:28:54;;;;;;;20.52;6.22;;;;;;;;;;5772342;28;20043;-71
2023/10/21 02:31:44;;;;;;;14.52;3.15;;;;;;;;;;5772413;28;20048;-71
2023/10/21 02:34:35;;;;;;;15.10;3.58;;;;;;;;;;5772334;28;20047;-71
2023/10/21 02:37:26;;;;;;;11.15;3.08;;;;;;;;;;5772415;28;20047;-71
2023/10/21 02:40:17;;;;;;;17.17;4.05;;;;;;;;;;5772190;28;20051;-71
2023/10/21 02:43:09;;;;;;;11.68;4.15;;;;;;;;;;5772367;28;20528;-71
2023/10/21 02:46:11;;;;;;;8.98;4.40;;;;;;;;;;5772708;28;20050;-71
2023/10/21 02:49:01;;;;;;;9.32;5.03;;;;;;;;;;5771962;28;20043;-71
2023/10/21 02:51:52;;;;;;;8.60;3.30;;;;;;;;;;5772757;28;20047;-71
2023/10/21 02:54:43;;;;;;;12.90;3.22;;;;;;;;;;5771983;28;20043;-71
2023/10/21 02:57:34;;;;;;;19.27;3.28;;;;;;;;;;5772122;28;20043;-71
2023/10/21 03:00:26;;;;;;;12.88;4.38;;;;;;;;;;5772065;28;20101;-71
2023/10/21 03:03:17;;;;;;;5.93;3.47;;;;;;;;;;5771951;28;20497;-71
2023/10/21 03:06:11;;;;;;;20.73;4.82;;;;;;;;;;5772161;28;20645;-72
2023/10/21 03:09:06;;;;;;;8.77;5.80;;;;;;;;;;5772007;28;20047;-72
2023/10/21 03:11:56;;;;;;;16.63;5.22;;;;;;;;;;5771262;28;20051;-71
2023/10/21 03:14:47;;;;;;;11.75;4.20;;;;;;;;;;5771876;28;20518;-71
2023/10/21 03:17:38;;;;;;;12.82;5.68;;;;;;;;;;5771951;28;20391;-71
2023/10/21 03:20:32;;;;;;;6.18;4.22;;;;;;;;;;5771805;28;20051;-71
2023/10/21 03:23:23;;;;;;;8.00;4.00;;;;;;;;;;5772008;28;20065;-71
2023/10/21 03:26:14;;;;;;;5.60;4.07;;;;;;;;;;5771813;28;20059;-71
2023/10/21 03:29:05;;;;;;;11.23;4.57;;;;;;;;;;5771810;28;20102;-71
2023/10/21 03:31:56;;;;;;;13.23;4.68;;;;;;;;;;5772289;28;20079;-71
2023/10/21 03:34:47;;;;;;;8.75;4.85;;;;;;;;;;5771665;28;20063;-71
2023/10/21 03:37:37;;;;;;;15.30;6.03;;;;;;;;;;5771662;28;20417;-71
2023/10/21 03:40:28;;;;;;;14.25;5.03;;;;;;;;;;5771695;28;20043;-71
2023/10/21 03:43:19;;;;;;;6.28;3.58;;;;;;;;;;5771630;28;20047;-71
2023/10/21 03:46:17;;;;;;;15.50;5.03;;;;;;;;;;5771604;28;20053;-71
2023/10/21 03:49:08;;;;;;;15.07;4.70;;;;;;;;;;5771566;28;20138;-71
2023/10/21 03:51:58;;;;;;;11.93;4.25;;;;;;;;;;5775037;28;20682;-71
2023/10/21 03:54:49;;;;;;;10.50;4.70;;;;;;;;;;5775691;28;20046;-71
2023/10/21 03:57:40;;;;;;;29.33;4.88;;;;;;;;;;5775420;28;20051;-71
2023/10/21 04:00:31;;;;;;;9.10;3.72;;;;;;;;;;5775506;28;20051;-71
2023/10/21 04:03:22;;;;;;;8.23;4.07;;;;;;;;;;5775131;28;20051;-71
2023/10/21 04:06:16;;;;;;;12.27;3.70;;;;;;;;;;5775392;28;20190;-71
2023/10/21 04:09:08;;;;;;;12.13;5.10;;;;;;;;;;5775249;28;20047;-71
2023/10/21 04:11:59;;;;;;;20.98;3.50;;;;;;;;;;5775569;28;20050;-71
2023/10/21 04:14:49;;;;;;;17.15;4.28;;;;;;;;;;5775556;28;20454;-71
2023/10/21 04:17:40;;;;;;;15.30;3.20;;;;;;;;;;5775076;28;20048;-71
2023/10/21 04:20:31;;;;;;;6.25;2.38;;;;;;;;;;5773887;28;20047;-71
2023/10/21 04:23:22;;;;;;;19.02;2.20;;;;;;;;;;5774963;28;20055;-71
2023/10/21 04:26:13;;;;;;;8.07;3.20;;;;;;;;;;5774993;28;20481;-71
2023/10/21 04:29:04;;;;;;;7.88;3.45;;;;;;;;;;5774927;28;20040;-71
2023/10/21 04:31:55;;;;;;;4.63;2.40;;;;;;;;;;5775408;28;20420;-71
2023/10/21 04:34:46;;;;;;;5.22;2.53;;;;;;;;;;5774625;28;20043;-71
2023/10/21 04:37:37;;;;;;;8.95;2.95;;;;;;;;;;5774640;28;20047;-71
2023/10/21 04:40:28;;;;;;;11.95;4.25;;;;;;;;;;5774587;28;20047;-71
2023/10/21 04:43:18;;;;;;;7.85;3.25;;;;;;;;;;5774445;28;20051;-71
2023/10/21 04:46:09;;;;;;;10.65;3.38;;;;;;;;;;5774574;28;20043;-72
2023/10/21 04:49:00;;;;;;;8.35;3.70;;;;;;;;;;5775069;28;20473;-71
2023/10/21 04:51:51;;;;;;;12.07;3.75;;;;;;;;;;5774642;28;20039;-71
2023/10/21 04:54:42;;;;;;;8.60;1.98;;;;;;;;;;5774374;28;20043;-71
2023/10/21 04:57:33;;;;;;;17.50;2.90;;;;;;;;;;5774318;28;20624;-71
2023/10/21 05:00:24;;;;;;;11.80;3.58;;;;;;;;;;5774247;28;20047;-71
2023/10/21 05:03:15;;;;;;;12.07;3.30;;;;;;;;;;5773034;28;20416;-71
2023/10/21 05:06:07;;;;;;;6.38;2.15;;;;;;;;;;5774021;28;20050;-71
2023/10/21 05:08:58;;;;;;;22.88;4.38;;;;;;;;;;5774516;28;20039;-71
2023/10/21 05:11:49;;;;;;;7.63;2.65;;;;;;;;;;5774036;28;20197;-71
2023/10/21 05:14:40;;;;;;;7.93;3.50;;;;;;;;;;5773784;28;20505;-71
2023/10/21 05:17:31;;;;;;;10.73;4.03;;;;;;;;;;5773903;28;20074;-71
2023/10/21 05:20:22;;;;;;;15.63;3.40;;;;;;;;;;5773830;28;20047;-71
2023/10/21 05:23:13;;;;;;;17.73;3.58;;;;;;;;;;5773578;28;20139;-71
2023/10/21 05:26:04;;;;;;;9.75;2.75;;;;;;;;;;5773502;28;20054;-71
2023/10/21 05:28:57;;;;;;;6.05;3.05;;;;;;;;;;5774195;28;20500;-71
2023/10/21 05:31:49;;;;;;;3.22;2.08;;;;;;;;;;5773502;28;20051;-71
2023/10/21 05:34:41;;;;;;;20.60;3.30;;;;;;;;;;5773394;28;20051;-71
2023/10/21 05:37:31;;;;;;;9.60;3.55;;;;;;;;;;5773413;28;20051;-71
2023/10/21 05:40:22;;;;;;;11.60;3.35;;;;;;;;;;5773340;28;20410;-71
2023/10/21 05:43:13;;;;;;;16.38;4.57;;;;;;;;;;5773287;28;20062;-71
2023/10/21 05:46:04;;;;;;;8.20;2.85;;;;;;;;;;5773454;28;20169;-72
2023/10/21 05:48:55;;;;;;;10.48;3.45;;;;;;;;;;5773592;28;20074;-71
2023/10/21 05:51:45;;;;;;;9.00;2.88;;;;;;;;;;5773296;28;20054;-71
2023/10/21 05:54:36;;;;;;;33.03;2.50;;;;;;;;;;5773134;28;20051;-71
2023/10/21 05:57:28;;;;;;;4.50;2.05;;;;;;;;;;5772885;28;20054;-71
2023/10/21 06:00:19;;;;;;;18.02;3.60;;;;;;;;;;5773074;28;20117;-71
2023/10/21 06:03:10;;;;;;;18.83;3.72;;;;;;;;;;5772654;28;20043;-71
2023/10/21 06:06:01;;;;;;;9.23;2.72;;;;;;;;;;5772850;28;20182;-72
2023/10/21 06:08:52;;;;;;;16.55;3.42;;;;;;;;;;5773383;28;20051;-71
2023/10/21 06:11:43;;;;;;;5.20;1.90;;;;;;;;;;5772806;28;20489;-71
2023/10/21 06:14:34;;;;;;;8.85;2.78;;;;;;;;;;5772414;28;20047;-71
2023/10/21 06:17:25;;;;;;;6.43;2.92;;;;;;;;;;5772751;28;20371;-71
2023/10/21 06:20:16;;;;;;;15.90;4.28;;;;;;;;;;5772524;28;20126;-71
2023/10/21 06:23:07;;;;;;;17.23;3.30;;;;;;;;;;5772501;28;20054;-72
2023/10/21 06:25:59;;;;;;;16.00;3.28;;;;;;;;;;5773068;28;20055;-71
2023/10/21 06:28:49;;;;;;;6.63;2.63;;;;;;;;;;5772608;28;20731;-71
2023/10/21 06:31:40;;;;;;;3.88;2.65;;;;;;;;;;5772460;28;20493;-71
2023/10/21 06:34:31;;;;;;;5.10;3.17;;;;;;;;;;5772496;28;20445;-71
2023/10/21 06:37:22;;;;;;;17.23;3.47;;;;;;;;;;5772252;28;20051;-71
2023/10/21 06:40:13;;;;;;;11.27;2.90;;;;;;;;;;5786999;28;20050;-72
2023/10/21 06:43:17;;;;;;;9.40;3.05;;;;;;;;;;5772388;28;20054;-71
2023/10/21 06:46:08;;;;;;;13.80;6.25;;;;;;;;;;5772333;28;20051;-72
2023/10/21 06:48:58;;;;;;;12.95;4.75;;;;;;;;;;5772743;28;20137;-71
2023/10/21 06:51:49;;;;;;;12.75;3.13;;;;;;;;;;5772529;28;20064;-72
2023/10/21 06:54:40;;;;;;;7.40;3.67;;;;;;;;;;5772298;28;20055;-72
2023/10/21 06:57:31;;;;;;;4.82;2.70;;;;;;;;;;5772112;28;20414;-72
2023/10/21 07:00:22;;;;;;;6.97;2.25;;;;;;;;;;5772200;28;20405;-71
2023/10/21 07:03:13;;;;;;;13.63;3.47;;;;;;;;;;5771967;28;20106;-72
2023/10/21 07:06:04;;;;;;;7.47;2.45;;;;;;;;;;5772126;28;20054;-72
2023/10/21 07:08:55;;;;;;;4.13;2.20;;;;;;;;;;5772414;28;20180;-71
2023/10/21 07:11:46;;;;;;;12.32;3.08;;;;;;;;;;5772136;28;20194;-72
2023/10/21 07:14:37;;;;;;;13.15;4.18;;;;;;;;;;5771908;28;20047;-72
2023/10/21 07:17:31;;;;;;;4.32;2.17;;;;;;;;;;5786720;28;20429;-72
2023/10/21 07:20:22;;;;;;;6.65;2.72;;;;;;;;;;5772031;28;20055;-72
2023/10/21 07:23:14;;;;;;;9.98;3.38;;;;;;;;;;5771862;28;20694;-72
2023/10/21 07:26:05;;;;;;;10.60;3.38;;;;;;;;;;5773747;28;20044;-72
2023/10/21 07:28:56;;;;;;;31.30;4.05;;;;;;;;;;5776595;28;20051;-72
2023/10/21 07:31:47;;;;;;;4.45;2.58;;;;;;;;;;5776138;28;20495;-72
2023/10/21 07:34:38;;;;;;;4.65;2.38;;;;;;;;;;5776031;28;20086;-71
2023/10/21 07:37:30;;;;;;;2.92;2.20;;;;;;;;;;5776444;28;20054;-72
2023/10/21 07:40:21;;;;;;;11.90;2.88;;;;;;;;;;5776025;28;20499;-72
2023/10/21 07:43:12;;;;;;;4.03;2.40;;;;;;;;;;5774538;28;20047;-71
2023/10/21 07:46:05;;;;;;;5.28;3.33;;;;;;;;;;5776057;28;20047;-72
2023/10/21 07:48:56;;;;;;;11.18;4.00;;;;;;;;;;5776180;28;20047;-72
2023/10/21 07:51:48;;;;;;;14.82;3.60;;;;;;;;;;5775744;28;20050;-72
2023/10/21 07:54:39;;;;;;;4.50;3.08;;;;;;;;;;5775459;28;20505;-72
2023/10/21 07:57:33;;;;;;;4.88;2.47;;;;;;;;;;5775806;28;20493;-72
2023/10/21 08:00:25;;;;;;;3.20;2.35;;;;;;;;;;5775616;28;20055;-71
2023/10/21 08:03:15;;;;;;;7.03;2.60;;;;;;;;;;5775185;28;20047;-72
2023/10/21 08:06:07;;;;;;;6.32;3.00;;;;;;;;;;5775474;28;20454;-72
2023/10/21 08:08:58;;;;;;;14.75;3.67;;;;;;;;;;5775922;28;20122;-72
2023/10/21 08:11:49;;;;;;;5.88;2.88;;;;;;;;;;5775542;28;20126;-72
2023/10/21 08:14:40;;;;;;;13.20;3.70;;;;;;;;;;5789922;28;20043;-72
2023/10/21 08:17:31;;;;;;;9.98;3.63;;;;;;;;;;5775127;28;20050;-71
2023/10/21 08:20:24;;;;;;;7.93;3.72;;;;;;;;;;5775237;28;20129;-71
2023/10/21 08:23:16;;;;;;;23.58;7.40;;;;;;;;;;5775125;28;20061;-71
2023/10/21 08:26:06;;;;;;;13.55;6.68;;;;;;;;;;5775384;28;20058;-72
2023/10/21 08:28:58;;;;;;;19.80;7.40;;;;;;;;;;5775604;28;20501;-71
2023/10/21 08:31:49;;;;;;;15.20;6.65;;;;;;;;;;5774950;28;20051;-71
2023/10/21 08:34:40;;;;;;;9.95;3.80;;;;;;;;;;5774892;28;20051;-71
2023/10/21 08:37:31;;;;;;;6.65;4.07;;;;;;;;;;5774670;28;20044;-71
2023/10/21 08:40:22;;;;;;;12.77;2.97;;;;;;;;;;5789569;28;20047;-71
2023/10/21 08:43:17;;;;;;;9.77;3.65;;;;;;;;;;5774630;28;20047;-71
2023/10/21 08:46:08;;;;;;;14.38;4.28;;;;;;;;;;5774355;28;20086;-71
2023/10/21 08:49:03;;;;;;;13.40;3.63;;;;;;;;;;5774976;28;20047;-71
2023/10/21 08:51:56;;;;;;;14.70;2.67;;;;;;;;;;5774805;28;20098;-71
2023/10/21 08:54:47;;;;;;;21.90;2.90;;;;;;;;;;5773269;28;20051;-71
2023/10/21 08:57:38;;;;;;;11.90;2.92;;;;;;;;;;5774394;28;20047;-71
2023/10/21 09:00:29;;;;;;;18.17;3.25;;;;;;;;;;5774360;28;20043;-71
2023/10/21 09:03:20;;;;;;;6.38;2.45;;;;;;;;;;5774235;28;20659;-71
2023/10/21 09:06:11;;;;;;;13.55;3.70;;;;;;;;;;5774231;28;20043;-71
2023/10/21 09:09:04;;;;;;;11.60;1.75;;;;;;;;;;5774237;28;20053;-71
2023/10/21 09:12:11;;;;;;;12.02;3.75;;;;;;;;;;5774845;28;20047;-72
2023/10/21 09:15:05;;;;;;;8.30;2.30;;;;;;;;;;5774109;28;20516;-72
2023/10/21 09:18:10;;;;;;;8.13;2.67;;;;;;;;;;5774543;28;20425;-72
2023/10/21 09:21:02;;;;;;;11.18;3.08;;;;;;;;;;5773531;28;20046;-72
2023/10/21 09:23:53;;;;;;;7.07;2.00;;;;;;;;;;5774277;28;20057;-72
2023/10/21 09:26:47;;;;;;;7.75;3.45;;;;;;;;;;5773827;28;20066;-71
2023/10/21 09:29:39;;;;;;;19.77;2.78;;;;;;;;;;5773949;28;20134;-71
2023/10/21 09:32:30;;;;;;;8.32;3.40;;;;;;;;;;5773722;28;20047;-71
2023/10/21 09:35:27;;;;;;;6.45;2.75;;;;;;;;;;5773823;28;20505;-72
2023/10/21 09:38:19;;;;;;;8.30;2.88;;;;;;;;;;5773631;28;20106;-72
2023/10/21 09:41:10;;;;;;;19.80;3.05;;;;;;;;;;5773347;28;20047;-71
2023/10/21 09:44:03;;;;;;;23.63;3.50;;;;;;;;;;5772142;28;20158;-71
2023/10/21 09:47:02;;;;;;;6.85;2.65;;;;;;;;;;5773808;28;20047;-72
2023/10/21 09:49:54;;;;;;;8.02;2.55;;;;;;;;;;5773055;28;20043;-71
2023/10/21 09:53:11;;;;;;;9.70;2.53;;;;;;;;;;5771939;28;20043;-71
2023/10/21 09:56:02;;;;;;;11.55;2.85;;;;;;;;;;5772939;28;20043;-72
2023/10/21 09:58:55;;;;;;;21.65;3.05;;;;;;;;;;5773512;28;20057;-72
2023/10/21 10:01:46;;;;;;;12.23;3.33;;;;;;;;;;5773109;28;20043;-72
2023/10/21 10:04:38;;;;;;;18.40;4.30;;;;;;;;;;5771466;28;20065;-72
2023/10/21 10:07:30;;;;;;;20.80;3.33;;;;;;;;;;5772912;28;20098;-72
2023/10/21 10:10:32;;;;;;;9.38;2.97;;;;;;;;;;5773174;28;20051;-72
2023/10/21 10:13:24;;;;;;;18.52;2.95;;;;;;;;;;5771512;28;20050;-72
2023/10/21 10:16:25;;;;;;;7.88;2.30;;;;;;;;;;5772936;28;20049;-72
2023/10/21 10:19:38;;;;;;;4.70;2.35;;;;;;;;;;5772588;28;20043;-72
2023/10/21 10:22:31;;;;;;;10.43;2.90;;;;;;;;;;5772629;28;20122;-72
2023/10/21 10:25:32;;;;;;;17.95;2.45;;;;;;;;;;5772824;28;20074;-72
2023/10/21 10:28:27;;;;;;;8.10;2.25;;;;;;;;;;5772550;28;20043;-72
2023/10/21 10:31:21;;;;;;;3.05;1.33;;;;;;;;;;5772618;28;20183;-72
2023/10/21 10:34:12;;;;;;;7.50;2.97;;;;;;;;;;5772413;28;20488;-72
2023/10/21 10:37:03;;;;;;;4.60;2.05;;;;;;;;;;5772472;28;20421;-72
2023/10/21 10:39:54;;;;;;;2.25;1.02;;;;;;;;;;5772913;28;20047;-72
2023/10/21 10:42:45;;;;;;;4.50;1.23;;;;;;;;;;5772369;28;20545;-71
2023/10/21 10:45:40;;;;;;;13.43;2.28;;;;;;;;;;5786994;28;20074;-72
2023/10/21 10:48:31;;;;;;;3.95;1.42;;;;;;;;;;5772268;28;20047;-72
2023/10/21 10:51:23;;;;;;;1.98;1.30;;;;;;;;;;5772206;28;20142;-72
2023/10/21 10:54:18;;;;;;;11.05;2.03;;;;;;;;;;5771086;28;20126;-71
2023/10/21 10:57:17;;;;;;;6.10;1.50;;;;;;;;;;5771970;28;20067;-72
2023/10/21 11:00:10;;;;;;;3.35;0.82;;;;;;;;;;5772375;28;20055;-72
2023/10/21 11:03:02;;;;;;;10.55;1.35;;;;;;;;;;5776451;28;20051;-72
2023/10/21 11:05:55;;;;;;;2.42;1.30;;;;;;;;;;5777330;28;20110;-71
2023/10/21 11:08:46;;;;;;;2.97;1.85;;;;;;;;;;5776781;28;20047;-71
2023/10/21 11:11:45;;;;;;;3.58;1.13;;;;;;;;;;5776606;28;20051;-71
2023/10/21 11:14:46;;;;;;;2.58;0.65;;;;;;;;;;5776601;28;20119;-71
2023/10/21 11:17:37;;;;;;;4.70;1.52;;;;;;;;;;5776336;28;20417;-71
2023/10/21 11:20:28;;;;;;;1.13;1.00;;;;;;;;;;5774994;28;20054;-71
2023/10/21 11:23:26;;;;;;;4.55;1.42;;;;;;;;;;5776303;28;20371;-71
2023/10/21 11:26:16;;;;;;;1.15;0.80;;;;;;;;;;5776332;28;20130;-71
2023/10/21 11:29:08;;;;;;;1.73;0.80;;;;;;;;;;5774704;28;20055;-72
2023/10/21 11:31:59;;;;;;;1.85;0.57;;;;;;;;;;5776703;28;20552;-71
2023/10/21 11:34:50;;;;;;;5.00;0.93;;;;;;;;;;5776575;28;20073;-71
2023/10/21 11:37:41;;;;;;;1.45;0.68;;;;;;;;;;5776056;28;20047;-71
2023/10/21 11:40:34;;;;;;;2.80;0.85;;;;;;;;;;5776013;28;20047;-72
2023/10/21 11:43:27;;;;;;;13.93;1.45;;;;;;;;;;5775993;28;20047;-71
2023/10/21 11:46:20;;;;;;;1.08;0.73;;;;;;;;;;5775961;28;20043;-71
2023/10/21 11:49:15;;;;;;;1.52;0.85;;;;;;;;;;5775732;28;20047;-72
2023/10/21 11:52:09;;;;;;;6.50;1.13;;;;;;;;;;5774415;28;20058;-72
2023/10/21 12:07:31;;;;;;;4.05;1.65;;;;;;;;;;5775671;28;20147;-71
2023/10/21 12:38:23;;;;;;;7.53;2.05;;;;;;;;;;5774796;28;20055;-71
2023/10/21 12:41:25;;;;;;;1.25;0.90;;;;;;;;;;5774682;28;20073;-72
2023/10/21 12:44:23;;;;;;;1.60;0.70;;;;;;;;;;5774609;28;20501;-71
2023/10/21 12:47:14;;;;;;;2.83;1.30;;;;;;;;;;5774611;28;20454;-71
2023/10/21 12:50:12;;;;;;;4.97;1.58;;;;;;;;;;5774670;28;20083;-72
2023/10/21 12:53:03;;;;;;;1.23;0.70;;;;;;;;;;5774616;28;20051;-72
2023/10/21 12:55:54;;;;;;;1.98;1.20;;;;;;;;;;5774874;28;20501;-72
2023/10/21 12:58:45;;;;;;;9.15;2.30;;;;;;;;;;5773121;28;20048;-72
2023/10/21 13:01:38;;;;;;;6.07;1.50;;;;;;;;;;5774302;28;20058;-71
2023/10/21 13:04:29;;;;;;;4.07;0.80;;;;;;;;;;5774021;28;20138;-72
2023/10/21 13:07:20;;;;;;;6.57;1.58;;;;;;;;;;5774187;28;20576;-72
2023/10/21 13:10:11;;;;;;;1.92;0.80;;;;;;;;;;5774139;28;20143;-72
2023/10/21 13:13:04;;;;;;;9.65;1.25;;;;;;;;;;5774171;28;20057;-72
2023/10/21 13:15:55;;;;;;;4.70;1.20;;;;;;;;;;5774627;28;20043;-72
2023/10/21 13:18:46;;;;;;;14.75;1.77;;;;;;;;;;5773911;28;20521;-72
2023/10/21 13:21:37;;;;;;;3.30;1.30;;;;;;;;;;5774066;28;20383;-72
2023/10/21 13:24:28;;;;;;;2.70;1.17;;;;;;;;;;5771690;28;20058;-71
2023/10/21 13:27:19;;;;;;;2.90;1.77;;;;;;;;;;5773773;28;20055;-72
2023/10/21 13:30:10;;;;;;;27.95;1.38;;;;;;;;;;5788446;28;20050;-72
2023/10/21 13:33:03;;;;;;;3.92;1.38;;;;;;;;;;5773723;28;20054;-72
2023/10/21 13:35:55;;;;;;;2.10;0.88;;;;;;;;;;5773918;28;20126;-71
2023/10/21 13:38:45;;;;;;;1.98;1.42;;;;;;;;;;5773539;28;20043;-72
2023/10/21 13:41:36;;;;;;;6.20;1.55;;;;;;;;;;5773570;28;20054;-71
2023/10/21 13:44:29;;;;;;;3.20;0.98;;;;;;;;;;5773356;28;20058;-72
2023/10/21 13:47:20;;;;;;;6.57;1.08;;;;;;;;;;5773281;28;20063;-72
2023/10/21 13:50:15;;;;;;;0.88;0.55;;;;;;;;;;5773508;28;20130;-71
2023/10/21 13:53:14;;;;;;;3.70;1.13;;;;;;;;;;5773409;28;20500;-72
2023/10/21 13:56:06;;;;;;;6.90;2.60;;;;;;;;;;5773463;28;20047;-72
2023/10/21 13:58:57;;;;;;;3.35;2.40;;;;;;;;;;5773441;28;20145;-71
2023/10/21 14:01:48;;;;;;;4.47;2.75;;;;;;;;;;5773013;28;20195;-72
2023/10/21 14:04:41;;;;;;;9.43;2.15;;;;;;;;;;5772747;28;20161;-72
2023/10/21 14:07:32;;;;;;;2.83;1.60;;;;;;;;;;5773032;28;20083;-72
2023/10/21 14:10:23;;;;;;;3.65;1.52;;;;;;;;;;5772939;28;20074;-72
2023/10/21 14:13:19;;;;;;;6.28;3.45;;;;;;;;;;5772690;28;20159;-72
2023/10/21 14:16:11;;;;;;;5.28;2.42;;;;;;;;;;5772888;28;20479;-72
2023/10/21 14:19:03;;;;;;;6.10;2.78;;;;;;;;;;5772856;28;20070;-72
2023/10/21 14:21:53;;;;;;;9.63;2.53;;;;;;;;;;5773224;28;20417;-72
2023/10/21 14:24:44;;;;;;;6.10;1.55;;;;;;;;;;5772488;28;20047;-72
2023/10/21 14:27:37;;;;;;;2.72;1.27;;;;;;;;;;5772603;28;20070;-72
2023/10/21 14:30:28;;;;;;;1.90;0.80;;;;;;;;;;5772757;28;20066;-72
2023/10/21 14:33:29;;;;;;;10.80;1.70;;;;;;;;;;5772520;28;20391;-72
2023/10/21 14:36:20;;;;;;;4.82;1.48;;;;;;;;;;5771141;28;20058;-72
2023/10/21 14:39:11;;;;;;;2.05;1.20;;;;;;;;;;5772468;28;20497;-72
2023/10/21 14:42:03;;;;;;;7.35;2.03;;;;;;;;;;5772191;28;20043;-72
2023/10/21 14:44:55;;;;;;;2.83;1.85;;;;;;;;;;5772841;28;20098;-72
2023/10/21 14:47:46;;;;;;;6.57;3.10;;;;;;;;;;5772245;28;20043;-72
2023/10/21 14:50:43;;;;;;;5.13;1.80;;;;;;;;;;5772320;28;20079;-72
2023/10/21 14:53:34;;;;;;;6.78;2.65;;;;;;;;;;5771523;28;20051;-72
2023/10/21 14:56:25;;;;;;;3.70;2.33;;;;;;;;;;5772136;28;20478;-72
2023/10/21 14:59:15;;;;;;;11.30;4.00;;;;;;;;;;5771948;28;20141;-72
2023/10/21 15:02:06;;;;;;;11.80;3.65;;;;;;;;;;5771988;28;20047;-72
2023/10/21 15:04:57;;;;;;;39.80;13.60;;;;;;;;;;5772500;28;20102;-72
2023/10/21 15:07:48;;;;;;;45.90;15.60;;;;;;;;;;5772045;28;20282;-72
2023/10/21 15:10:40;;;;;;;39.33;14.52;;;;;;;;;;5771984;28;20047;-72
2023/10/21 15:13:34;;;;;;;41.97;13.32;;;;;;;;;;5772228;28;20043;-72
2023/10/21 15:16:25;;;;;;;18.02;7.90;;;;;;;;;;5771760;28;20048;-72
2023/10/21 15:19:16;;;;;;;9.38;4.82;;;;;;;;;;5771869;28;20051;-72
2023/10/21 15:22:07;;;;;;;7.72;3.05;;;;;;;;;;5771710;28;20407;-72
2023/10/21 15:24:57;;;;;;;5.50;2.08;;;;;;;;;;5772261;28;20054;-72
2023/10/21 15:27:51;;;;;;;6.85;3.33;;;;;;;;;;5771926;28;20051;-72
2023/10/21 15:30:43;;;;;;;17.95;3.08;;;;;;;;;;5772054;28;20043;-71
2023/10/21 15:33:33;;;;;;;10.68;2.92;;;;;;;;;;5771630;28;20062;-71
2023/10/21 15:36:25;;;;;;;6.75;1.77;;;;;;;;;;5771795;28;20070;-71
2023/10/21 15:39:19;;;;;;;9.13;2.60;;;;;;;;;;5771852;28;20155;-72
2023/10/21 15:42:10;;;;;;;21.30;2.97;;;;;;;;;;5770248;28;20054;-71
2023/10/21 15:45:02;;;;;;;7.40;2.28;;;;;;;;;;5771782;28;20047;-72
2023/10/21 15:47:53;;;;;;;18.45;3.25;;;;;;;;;;5775025;28;20047;-71
2023/10/21 15:50:43;;;;;;;7.72;2.95;;;;;;;;;;5775766;28;20114;-71
2023/10/21 15:53:34;;;;;;;8.10;2.95;;;;;;;;;;5775670;28;20069;-71
2023/10/21 15:56:26;;;;;;;9.02;3.22;;;;;;;;;;5775640;28;20043;-71
2023/10/21 15:59:17;;;;;;;7.65;2.45;;;;;;;;;;5775536;28;20489;-71
2023/10/21 16:02:09;;;;;;;7.78;2.72;;;;;;;;;;5775437;28;20613;-71
2023/10/21 16:05:00;;;;;;;5.57;1.75;;;;;;;;;;5776027;28;20051;-71
2023/10/21 16:07:51;;;;;;;13.27;3.10;;;;;;;;;;5775469;28;20043;-71
2023/10/21 16:10:44;;;;;;;10.85;2.75;;;;;;;;;;5775298;28;20043;-71
2023/10/21 16:13:36;;;;;;;4.85;2.35;;;;;;;;;;5775227;28;20051;-71
2023/10/21 16:16:29;;;;;;;16.83;2.63;;;;;;;;;;5775246;28;20524;-71
2023/10/21 16:19:20;;;;;;;8.07;1.70;;;;;;;;;;5774990;28;20061;-71
2023/10/21 16:22:10;;;;;;;7.45;2.40;;;;;;;;;;5775090;28;20050;-71
2023/10/21 16:25:01;;;;;;;5.68;2.65;;;;;;;;;;5774950;28;20047;-72
2023/10/21 16:27:52;;;;;;;4.85;2.10;;;;;;;;;;5775224;28;20050;-71
2023/10/21 16:30:43;;;;;;;11.52;2.80;;;;;;;;;;5774904;28;20047;-71
2023/10/21 16:33:34;;;;;;;3.63;1.80;;;;;;;;;;5774731;28;20060;-71
2023/10/21 16:36:25;;;;;;;11.43;4.38;;;;;;;;;;5774727;28;20142;-71
2023/10/21 16:39:16;;;;;;;14.55;4.82;;;;;;;;;;5774778;28;20055;-71
2023/10/21 16:42:07;;;;;;;8.75;4.75;;;;;;;;;;5774300;28;20175;-71
2023/10/21 16:44:58;;;;;;;13.60;4.05;;;;;;;;;;5774967;28;20079;-71
2023/10/21 16:47:49;;;;;;;4.97;3.85;;;;;;;;;;5774482;28;20395;-71
2023/10/21 16:50:41;;;;;;;14.43;4.65;;;;;;;;;;5774589;28;20078;-71
2023/10/21 16:53:32;;;;;;;23.92;4.13;;;;;;;;;;5774304;28;20055;-71
2023/10/21 16:56:23;;;;;;;12.63;3.63;;;;;;;;;;5788983;28;20049;-71
2023/10/21 16:59:14;;;;;;;8.52;3.60;;;;;;;;;;5773970;28;20055;-71
2023/10/21 17:02:04;;;;;;;5.00;2.28;;;;;;;;;;5774098;28;20047;-71
2023/10/21 17:04:55;;;;;;;9.40;5.03;;;;;;;;;;5774660;28;20362;-70
2023/10/21 17:07:47;;;;;;;10.02;5.97;;;;;;;;;;5774050;28;20417;-70
2023/10/21 17:10:38;;;;;;;8.82;4.82;;;;;;;;;;5773936;28;20047;-71
2023/10/21 17:13:30;;;;;;;9.27;4.50;;;;;;;;;;5773849;28;20126;-71
2023/10/21 17:16:20;;;;;;;13.30;6.75;;;;;;;;;;5772424;28;20059;-71
2023/10/21 17:19:11;;;;;;;11.85;6.30;;;;;;;;;;5773801;28;20130;-70
2023/10/21 17:22:04;;;;;;;8.80;5.78;;;;;;;;;;5773546;28;20069;-71
2023/10/21 17:24:55;;;;;;;15.63;6.68;;;;;;;;;;5774123;28;20050;-71
2023/10/21 17:27:48;;;;;;;8.27;5.07;;;;;;;;;;5773589;28;20075;-71
2023/10/21 17:30:39;;;;;;;10.13;5.03;;;;;;;;;;5773572;28;20047;-71
2023/10/21 17:33:29;;;;;;;9.20;5.13;;;;;;;;;;5772175;28;20190;-71
2023/10/21 17:36:40;;;;;;;13.23;7.80;;;;;;;;;;5773534;28;20098;-72
2023/10/21 17:39:30;;;;;;;20.25;8.07;;;;;;;;;;5773136;28;20079;-70
2023/10/21 17:42:21;;;;;;;16.75;10.52;;;;;;;;;;5773118;28;20047;-72